Time;durP1;ratioP1;P1;durP2;ratioP2;P2;SDS_P1;SDS_P2;PMS_P1;PMS_P2;Temp;Humidity;BMP_temperature;BMP_pressure;BME280_temperature;BME280_humidity;BME280_pressure;Samples;Min_cycle;Max_cycle;Signal;HPM_P1;HPM_P2
2021/04/24 00:00:43;;;;;;;6.00;4.13;;;;;;;-0.01;77.78;93667.69;2084855;28;20036;-84
2021/04/24 00:01:44;;;;;;;5.13;3.72;;;;;;;-0.09;77.24;93668.63;2094221;28;20024;-84
2021/04/24 00:02:45;;;;;;;5.22;3.50;;;;;;;-0.05;77.78;93672.09;2110208;28;20769;-84
2021/04/24 00:03:45;;;;;;;6.05;3.90;;;;;;;-0.09;77.99;93667.84;2102356;28;20054;-85
2021/04/24 00:04:46;;;;;;;6.10;3.70;;;;;;;-0.03;77.32;93669.91;2101489;28;20125;-84
2021/04/24 00:05:46;;;;;;;7.68;3.80;;;;;;;0.04;78.52;93671.19;2102669;28;20093;-86
2021/04/24 00:06:47;;;;;;;8.00;4.00;;;;;;;-0.03;77.61;93669.13;2093050;28;20107;-85
2021/04/24 00:07:47;;;;;;;5.93;3.88;;;;;;;-0.14;77.72;93666.22;2103088;28;20039;-85
2021/04/24 00:08:48;;;;;;;6.28;3.58;;;;;;;-0.10;78.14;93666.31;2109251;28;20036;-84
2021/04/24 00:09:48;;;;;;;7.28;4.07;;;;;;;-0.14;77.19;93670.69;2094208;28;20048;-84
2021/04/24 00:10:49;;;;;;;5.18;3.50;;;;;;;-0.12;78.08;93665.88;2085414;28;20033;-84
2021/04/24 00:11:50;;;;;;;6.57;4.38;;;;;;;-0.08;77.75;93659.63;2093757;28;20124;-84
2021/04/24 00:12:50;;;;;;;5.38;3.58;;;;;;;-0.05;77.68;93669.44;2100296;28;20028;-84
2021/04/24 00:13:51;;;;;;;4.47;3.33;;;;;;;-0.07;77.65;93665.66;2093393;28;20052;-84
2021/04/24 00:14:51;;;;;;;7.57;4.55;;;;;;;-0.11;78.33;93659.53;2093667;28;20033;-84
2021/04/24 00:15:52;;;;;;;5.60;3.67;;;;;;;-0.05;78.27;93664.19;2093670;28;20040;-83
2021/04/24 00:16:53;;;;;;;5.70;3.60;;;;;;;-0.11;77.63;93664.78;2090278;28;20119;-85
2021/04/24 00:17:53;;;;;;;6.18;3.92;;;;;;;-0.13;77.22;93662.50;2095574;28;20024;-85
2021/04/24 00:18:54;;;;;;;4.85;3.65;;;;;;;-0.23;78.62;93665.59;2091791;28;20775;-84
2021/04/24 00:19:54;;;;;;;5.55;3.80;;;;;;;-0.22;77.95;93656.63;2095477;28;20113;-84
2021/04/24 00:20:54;;;;;;;6.35;3.80;;;;;;;-0.23;77.53;93657.69;2091486;28;20067;-84
2021/04/24 00:21:55;;;;;;;6.00;3.65;;;;;;;-0.16;77.75;93657.91;2094932;28;20025;-84
2021/04/24 00:22:55;;;;;;;5.25;3.78;;;;;;;-0.20;77.64;93654.41;2091651;28;20029;-84
2021/04/24 00:23:56;;;;;;;5.60;3.40;;;;;;;-0.20;78.94;93651.78;2112399;28;20575;-84
2021/04/24 00:24:56;;;;;;;5.13;3.63;;;;;;;-0.23;77.78;93644.56;2099405;28;20083;-85
2021/04/24 00:25:57;;;;;;;5.20;3.58;;;;;;;-0.26;77.29;93648.66;2081191;28;20413;-84
2021/04/24 00:26:58;;;;;;;5.10;3.60;;;;;;;-0.31;77.95;93646.25;2085038;28;20021;-84
2021/04/24 00:27:58;;;;;;;4.88;3.47;;;;;;;-0.22;77.78;93646.13;2081311;28;20022;-84
2021/04/24 00:28:59;;;;;;;6.18;3.72;;;;;;;-0.24;77.93;93647.53;2095748;28;20075;-84
2021/04/24 00:29:59;;;;;;;6.57;3.70;;;;;;;-0.29;77.87;93643.28;2095197;28;20039;-85
2021/04/24 00:31:00;;;;;;;5.68;3.63;;;;;;;-0.37;77.81;93647.56;2089712;28;20116;-84
2021/04/24 00:32:00;;;;;;;5.78;3.75;;;;;;;-0.39;77.92;93641.16;2089413;28;20021;-84
2021/04/24 00:33:01;;;;;;;5.35;3.65;;;;;;;-0.31;77.70;93635.75;2083405;28;20075;-85
2021/04/24 00:34:03;;;;;;;7.07;3.35;;;;;;;-0.31;77.96;93646.25;2088771;28;20115;-85
2021/04/24 00:35:05;;;;;;;7.85;3.58;;;;;;;-0.37;77.56;93636.31;2098107;28;20111;-83
2021/04/24 00:36:05;;;;;;;6.43;3.97;;;;;;;-0.41;77.80;93635.44;2090411;28;20020;-84
2021/04/24 00:37:06;;;;;;;5.68;3.80;;;;;;;-0.37;78.54;93637.06;2088153;28;20984;-84
2021/04/24 00:38:07;;;;;;;5.55;3.70;;;;;;;-0.32;78.07;93634.19;2081907;28;20026;-85
2021/04/24 00:39:07;;;;;;;3.97;3.42;;;;;;;-0.36;77.89;93643.09;2088624;28;20025;-84
2021/04/24 00:40:09;;;;;;;6.05;3.45;;;;;;;-0.37;78.47;93628.44;2085152;28;20025;-84
2021/04/24 00:41:10;;;;;;;4.28;3.30;;;;;;;-0.37;78.62;93631.06;2089650;28;20082;-84
2021/04/24 00:42:11;;;;;;;5.70;4.15;;;;;;;-0.41;78.88;93630.19;2093749;28;20478;-84
2021/04/24 00:43:13;;;;;;;5.47;3.80;;;;;;;-0.49;79.05;93626.59;2081261;28;20388;-84
2021/04/24 00:44:14;;;;;;;5.78;3.63;;;;;;;-0.48;78.30;93630.78;2084489;28;20482;-84
2021/04/24 00:45:18;;;;;;;5.43;3.65;;;;;;;-0.49;78.13;93634.47;2088927;28;20037;-83
2021/04/24 00:46:19;;;;;;;5.82;3.80;;;;;;;-0.53;79.16;93628.34;2088921;28;20385;-84
2021/04/24 00:47:21;;;;;;;5.95;3.70;;;;;;;-0.52;78.77;93624.66;2082051;28;20022;-84
2021/04/24 00:48:21;;;;;;;4.28;3.47;;;;;;;-0.67;78.98;93625.34;2088186;28;20036;-84
2021/04/24 00:49:22;;;;;;;7.70;3.83;;;;;;;-0.60;79.72;93622.94;2090282;28;20107;-84
2021/04/24 00:50:31;;;;;;;4.40;4.00;;;;;;;-0.57;78.76;93622.25;2095941;28;20032;-84
2021/04/24 00:51:32;;;;;;;8.20;4.25;;;;;;;-0.64;79.61;93619.44;2086161;28;20033;-83
2021/04/24 00:52:32;;;;;;;7.93;3.75;;;;;;;-0.60;79.70;93623.69;2094596;28;20113;-84
2021/04/24 00:53:34;;;;;;;6.75;3.97;;;;;;;-0.63;79.50;93618.31;2092086;28;20421;-84
2021/04/24 00:54:34;;;;;;;4.97;3.25;;;;;;;-0.66;79.83;93617.16;2090487;28;20026;-84
2021/04/24 00:55:36;;;;;;;5.32;3.80;;;;;;;-0.63;78.98;93624.34;2084101;28;20029;-83
2021/04/24 00:56:36;;;;;;;3.72;3.30;;;;;;;-0.59;79.46;93624.44;2094412;28;20028;-83
2021/04/24 00:57:37;;;;;;;4.22;3.65;;;;;;;-0.63;79.08;93621.72;2100314;28;20024;-84
2021/04/24 00:58:37;;;;;;;5.95;3.95;;;;;;;-0.64;79.74;93611.56;2096494;28;20025;-84
2021/04/24 00:59:39;;;;;;;6.03;3.80;;;;;;;-0.69;79.47;93617.81;2093824;28;20124;-84
2021/04/24 01:00:40;;;;;;;5.18;3.80;;;;;;;-0.73;79.47;93611.69;2109614;28;20036;-85
2021/04/24 01:01:41;;;;;;;7.15;4.40;;;;;;;-0.74;79.17;93606.78;2102586;28;20036;-85
2021/04/24 01:02:42;;;;;;;7.07;3.67;;;;;;;-0.80;79.48;93612.25;2085433;28;20115;-83
2021/04/24 01:03:42;;;;;;;8.48;4.00;;;;;;;-0.86;80.65;93608.31;2094104;28;20021;-84
2021/04/24 01:04:43;;;;;;;5.20;3.72;;;;;;;-0.80;80.39;93603.59;2085524;28;20499;-84
2021/04/24 01:05:45;;;;;;;5.32;4.05;;;;;;;-0.76;80.22;93607.84;2085670;28;20064;-84
2021/04/24 01:06:46;;;;;;;4.90;4.15;;;;;;;-0.76;79.97;93605.22;2086171;28;20072;-83
2021/04/24 01:07:46;;;;;;;5.95;3.65;;;;;;;-0.58;79.16;93604.97;2092615;28;20024;-84
2021/04/24 01:08:47;;;;;;;5.50;3.67;;;;;;;-0.74;79.34;93602.28;2088843;28;20036;-84
2021/04/24 01:09:47;;;;;;;5.20;3.92;;;;;;;-0.79;79.45;93607.75;2091895;28;20041;-84
2021/04/24 01:10:48;;;;;;;3.60;3.08;;;;;;;-0.88;80.37;93607.13;2108781;28;20408;-84
2021/04/24 01:11:48;;;;;;;6.10;4.00;;;;;;;-0.96;80.78;93602.78;2083397;28;20458;-84
2021/04/24 01:12:49;;;;;;;5.65;3.80;;;;;;;-0.93;80.63;93602.84;2100213;28;20035;-84
2021/04/24 01:13:49;;;;;;;6.00;3.55;;;;;;;-0.86;79.78;93605.69;2100318;28;20119;-84
2021/04/24 01:14:50;;;;;;;6.63;3.85;;;;;;;-0.85;79.75;93604.59;2083572;28;20043;-84
2021/04/24 01:15:50;;;;;;;5.45;3.78;;;;;;;-0.87;80.00;93601.56;2091994;28;20074;-84
2021/04/24 01:16:51;;;;;;;5.68;3.45;;;;;;;-0.91;79.08;93605.94;2089919;28;20063;-84
2021/04/24 01:17:51;;;;;;;4.07;3.67;;;;;;;-0.86;79.80;93605.69;2100659;28;20472;-86
2021/04/24 01:18:52;;;;;;;8.48;4.05;;;;;;;-0.87;79.34;93608.66;2103266;28;20024;-84
2021/04/24 01:19:52;;;;;;;6.13;3.17;;;;;;;-0.96;79.70;93608.03;2091996;28;20032;-85
2021/04/24 01:20:56;;;;;;;3.65;3.30;;;;;;;-0.88;79.92;93607.91;2083797;28;20082;-85
2021/04/24 01:22:08;;;;;;;6.22;4.10;;;;;;;-0.82;79.49;93611.06;2092099;28;20074;-85
2021/04/24 01:23:09;;;;;;;5.90;3.42;;;;;;;-0.96;80.75;93608.78;2091011;28;20120;-85
2021/04/24 01:24:10;;;;;;;5.47;3.45;;;;;;;-0.93;79.94;93607.34;2088165;28;21105;-85
2021/04/24 01:25:17;;;;;;;6.55;3.70;;;;;;;-0.85;80.23;93606.47;2100008;28;20161;-85
2021/04/24 01:26:17;;;;;;;7.40;3.88;;;;;;;-1.05;80.68;93601.03;2092326;28;20044;-84
2021/04/24 01:27:18;;;;;;;4.70;3.72;;;;;;;-1.07;80.01;93605.84;2084071;28;21199;-84
2021/04/24 01:28:19;;;;;;;4.43;3.92;;;;;;;-1.04;81.00;93610.44;2080694;28;20387;-84
2021/04/24 01:29:20;;;;;;;7.07;3.85;;;;;;;-1.04;80.62;93605.19;2083464;28;20104;-84
2021/04/24 01:30:25;;;;;;;6.35;3.45;;;;;;;-1.11;79.73;93604.97;2083949;28;20017;-84
2021/04/24 01:31:25;;;;;;;5.60;3.40;;;;;;;-1.07;80.39;93610.31;2092530;28;20503;-85
2021/04/24 01:32:27;;;;;;;5.97;4.05;;;;;;;-1.03;81.00;93606.72;2100181;28;20107;-84
2021/04/24 01:33:27;;;;;;;7.38;4.22;;;;;;;-1.03;81.72;93609.31;2109047;28;20488;-85
2021/04/24 01:34:29;;;;;;;6.20;3.97;;;;;;;-1.00;81.46;93599.28;2098473;28;20025;-85
2021/04/24 01:35:31;;;;;;;5.40;3.78;;;;;;;-0.97;81.11;93594.13;2105912;28;20123;-85
2021/04/24 01:36:32;;;;;;;5.78;4.10;;;;;;;-1.10;80.55;93598.63;2097437;28;20481;-85
2021/04/24 01:37:33;;;;;;;4.00;3.20;;;;;;;-1.10;80.93;93601.25;2097212;28;20466;-85
2021/04/24 01:38:34;;;;;;;4.18;3.50;;;;;;;-1.10;80.75;93603.88;2093590;28;20451;-84
2021/04/24 01:39:34;;;;;;;7.22;3.97;;;;;;;-1.05;81.48;93602.91;2082891;28;20525;-84
2021/04/24 01:40:35;;;;;;;5.00;3.90;;;;;;;-1.13;81.63;93603.78;2092039;28;20050;-84
2021/04/24 01:41:35;;;;;;;6.43;3.50;;;;;;;-1.06;81.24;93598.72;2088783;28;20111;-84
2021/04/24 01:42:36;;;;;;;5.25;3.92;;;;;;;-1.00;81.26;93605.28;2100625;28;20587;-84
2021/04/24 01:43:36;;;;;;;5.88;3.83;;;;;;;-1.10;81.49;93600.47;2109242;28;20024;-84
2021/04/24 01:44:37;;;;;;;5.22;3.75;;;;;;;-1.19;81.58;93599.84;2108700;28;20023;-84
2021/04/24 01:45:37;;;;;;;6.25;3.80;;;;;;;-1.25;82.12;93607.16;2099861;28;20029;-84
2021/04/24 01:46:38;;;;;;;4.00;3.60;;;;;;;-1.13;81.74;93595.91;2089885;28;20257;-84
2021/04/24 01:47:41;;;;;;;8.10;3.65;;;;;;;-1.29;81.36;93596.56;2091285;28;20355;-84
2021/04/24 01:48:41;;;;;;;8.63;4.00;;;;;;;-1.24;81.46;93594.81;2091537;28;20054;-85
2021/04/24 01:49:42;;;;;;;5.63;3.47;;;;;;;-1.20;82.00;93596.44;2091347;28;20435;-84
2021/04/24 01:50:46;;;;;;;7.78;3.70;;;;;;;-1.10;81.85;93603.09;2083696;28;20032;-84
2021/04/24 01:51:46;;;;;;;6.50;3.55;;;;;;;-1.20;80.45;93595.69;2072524;28;20037;-84
2021/04/24 01:52:48;;;;;;;5.13;3.78;;;;;;;-1.16;82.15;93596.56;2088756;28;20443;-84
2021/04/24 01:53:52;;;;;;;7.97;4.13;;;;;;;-1.18;81.27;93593.50;2100394;28;20412;-84
2021/04/24 01:54:52;;;;;;;5.95;3.95;;;;;;;-1.19;82.44;93595.34;2081546;28;20028;-84
2021/04/24 01:55:53;;;;;;;4.70;3.85;;;;;;;-1.12;81.24;93595.56;2091106;28;20456;-84
2021/04/24 01:56:56;;;;;;;6.00;3.88;;;;;;;-1.13;81.87;93598.53;2091962;28;20112;-84
2021/04/24 01:57:58;;;;;;;7.65;4.00;;;;;;;-1.21;81.20;93596.78;2091572;28;20059;-85
2021/04/24 01:58:58;;;;;;;6.80;3.75;;;;;;;-1.19;81.53;93599.84;2087365;28;20455;-84
2021/04/24 01:59:59;;;;;;;5.85;3.95;;;;;;;-1.25;81.68;93594.06;2086249;28;20085;-84
2021/04/24 02:01:11;;;;;;;5.78;3.95;;;;;;;-1.24;81.48;93595.56;2097905;28;20059;-85
2021/04/24 02:02:11;;;;;;;9.00;3.92;;;;;;;-1.16;81.59;93597.31;2093010;28;20058;-85
2021/04/24 02:04:46;;;;;;;6.13;3.60;;;;;;;-1.30;82.06;93589.78;2147861;27;20105;-83
2021/04/24 02:05:47;;;;;;;5.57;3.45;;;;;;;-1.23;81.40;93594.47;2121614;28;20035;-84
2021/04/24 02:06:48;;;;;;;5.22;3.97;;;;;;;-1.35;82.09;93600.50;2104530;28;20032;-84
2021/04/24 02:08:00;;;;;;;6.75;3.78;;;;;;;-1.38;82.24;93601.16;2104319;28;21131;-84
2021/04/24 02:09:00;;;;;;;4.75;3.80;;;;;;;-1.37;82.80;93596.69;2119887;27;20027;-84
2021/04/24 02:10:01;;;;;;;5.60;3.80;;;;;;;-1.33;82.76;93600.94;2122734;27;20452;-84
2021/04/24 02:11:04;;;;;;;5.05;3.78;;;;;;;-1.43;82.30;93611.09;2117976;28;20462;-84
2021/04/24 02:12:09;;;;;;;6.25;3.80;;;;;;;-1.32;82.83;93599.06;2105063;28;20036;-84
2021/04/24 02:13:12;;;;;;;5.18;3.70;;;;;;;-1.44;82.28;93597.22;2104106;28;20824;-84
2021/04/24 02:14:13;;;;;;;6.35;3.65;;;;;;;-1.33;82.24;93600.16;2121624;27;20487;-83
2021/04/24 02:15:13;;;;;;;8.40;4.10;;;;;;;-1.35;82.96;93605.00;2112910;28;20468;-86
2021/04/24 02:16:14;;;;;;;6.18;3.92;;;;;;;-1.30;82.78;93604.75;2096191;28;20075;-83
2021/04/24 02:17:18;;;;;;;8.23;3.83;;;;;;;-1.26;82.50;93605.63;2104288;28;20028;-84
2021/04/24 02:18:19;;;;;;;5.88;3.70;;;;;;;-1.30;81.76;93608.16;2096940;28;20028;-85
2021/04/24 02:19:19;;;;;;;6.07;4.47;;;;;;;-1.32;82.05;93601.69;2103960;28;20525;-85
2021/04/24 02:20:20;;;;;;;4.90;3.60;;;;;;;-1.24;82.48;93600.81;2097790;28;20021;-84
2021/04/24 02:21:21;;;;;;;7.47;4.07;;;;;;;-1.33;82.05;93605.41;2104186;28;20032;-85
2021/04/24 02:22:23;;;;;;;3.95;3.35;;;;;;;-1.35;82.00;93602.38;2112275;28;21020;-85
2021/04/24 02:23:23;;;;;;;5.82;3.40;;;;;;;-1.38;82.64;93605.63;2104427;28;20023;-85
2021/04/24 02:24:23;;;;;;;5.60;3.72;;;;;;;-1.40;83.16;93597.34;2105180;28;20485;-83
2021/04/24 02:25:24;;;;;;;7.13;4.45;;;;;;;-1.47;82.97;93599.75;2103732;28;20032;-85
2021/04/24 02:26:25;;;;;;;7.25;4.20;;;;;;;-1.50;83.31;93601.16;2111699;28;20468;-84
2021/04/24 02:27:27;;;;;;;8.30;4.15;;;;;;;-1.45;83.59;93598.31;2119987;28;20031;-85
2021/04/24 02:28:28;;;;;;;5.07;3.47;;;;;;;-1.52;83.69;93596.25;2110028;28;20020;-84
2021/04/24 02:29:28;;;;;;;7.32;3.75;;;;;;;-1.52;83.47;93596.25;2105807;28;20454;-86
2021/04/24 02:30:29;;;;;;;6.75;3.95;;;;;;;-1.47;83.49;93602.38;2112641;28;20065;-84
2021/04/24 02:31:29;;;;;;;5.82;3.78;;;;;;;-1.39;83.26;93594.38;2108888;28;20468;-84
2021/04/24 02:32:31;;;;;;;5.65;3.83;;;;;;;-1.49;84.00;93600.06;2110407;28;20380;-84
2021/04/24 02:33:32;;;;;;;4.97;3.97;;;;;;;-1.48;83.93;93596.34;2096095;28;20024;-83
2021/04/24 02:34:33;;;;;;;6.32;3.72;;;;;;;-1.47;81.97;93603.13;2095794;28;20439;-84
2021/04/24 02:35:59;;;;;;;4.07;3.67;;;;;;;-1.38;82.59;93603.00;2107106;28;20035;-84
2021/04/24 02:37:00;;;;;;;7.10;3.63;;;;;;;-1.21;81.14;93591.53;2101988;28;20454;-84
2021/04/24 02:38:01;;;;;;;6.55;3.63;;;;;;;-1.23;81.47;93591.84;2104160;28;20458;-84
2021/04/24 02:39:01;;;;;;;5.20;3.50;;;;;;;-1.33;81.99;93587.81;2110806;28;20034;-86
2021/04/24 02:40:05;;;;;;;6.20;3.65;;;;;;;-1.24;81.21;93589.56;2109238;28;20027;-84
2021/04/24 02:41:06;;;;;;;5.60;3.75;;;;;;;-1.22;82.90;93590.03;2112921;28;20043;-84
2021/04/24 02:42:09;;;;;;;6.20;3.72;;;;;;;-1.31;81.20;93587.50;2105273;28;20462;-84
2021/04/24 02:43:09;;;;;;;6.95;3.55;;;;;;;-1.49;82.23;93594.03;2112761;28;20066;-84
2021/04/24 02:44:09;;;;;;;8.18;3.85;;;;;;;-1.54;81.70;93595.03;2104494;28;20482;-83
2021/04/24 02:45:12;;;;;;;8.18;4.13;;;;;;;-1.48;82.07;93592.97;2095770;28;20025;-84
2021/04/24 02:46:14;;;;;;;6.68;4.40;;;;;;;-1.56;82.68;93590.13;2112134;27;20028;-84
2021/04/24 02:47:16;;;;;;;4.97;3.58;;;;;;;-1.66;83.28;93584.56;2096675;28;21033;-84
2021/04/24 02:48:17;;;;;;;7.57;3.78;;;;;;;-1.58;82.92;93588.91;2104387;27;20438;-83
2021/04/24 02:49:18;;;;;;;4.50;3.63;;;;;;;-1.60;83.31;93586.63;2119993;28;20464;-83
2021/04/24 02:50:21;;;;;;;6.10;4.00;;;;;;;-1.61;83.68;93587.72;2112493;28;20457;-84
2021/04/24 02:51:21;;;;;;;4.80;3.40;;;;;;;-1.65;82.84;93592.09;2105930;27;20024;-83
2021/04/24 02:52:22;;;;;;;6.40;4.47;;;;;;;-1.69;83.84;93596.44;2111399;28;20481;-84
2021/04/24 02:53:22;;;;;;;7.55;4.03;;;;;;;-1.59;83.66;93587.38;2105036;28;20035;-84
2021/04/24 02:54:23;;;;;;;7.10;3.85;;;;;;;-1.56;82.92;93591.97;2112070;28;20028;-85
2021/04/24 02:55:24;;;;;;;5.43;3.80;;;;;;;-1.66;83.70;93593.19;2099826;28;20039;-86
2021/04/24 02:56:24;;;;;;;8.15;3.72;;;;;;;-1.63;83.19;93584.66;2105515;28;20484;-84
2021/04/24 02:57:25;;;;;;;7.05;4.20;;;;;;;-1.70;83.68;93588.91;2096340;28;20402;-86
2021/04/24 02:58:25;;;;;;;4.65;3.53;;;;;;;-1.75;82.31;93589.13;2095224;28;20043;-87
2021/04/24 02:59:26;;;;;;;5.85;3.80;;;;;;;-1.73;83.06;93590.31;2110876;28;20031;-85
2021/04/24 03:00:27;;;;;;;6.35;3.95;;;;;;;-1.71;83.63;93587.38;2099885;28;20644;-85
2021/04/24 03:01:27;;;;;;;7.63;4.00;;;;;;;-1.72;83.08;93584.00;2091878;28;20056;-85
2021/04/24 03:02:27;;;;;;;5.13;3.92;;;;;;;-1.71;83.63;93584.75;2092056;28;20060;-85
2021/04/24 03:03:28;;;;;;;6.18;4.00;;;;;;;-1.75;83.55;93589.91;2095374;28;20116;-85
2021/04/24 03:04:28;;;;;;;7.03;3.75;;;;;;;-1.79;84.03;93587.16;2103648;28;20045;-85
2021/04/24 03:05:29;;;;;;;11.13;4.47;;;;;;;-1.75;83.40;93584.66;2104032;28;20028;-85
2021/04/24 03:06:30;;;;;;;6.85;4.10;;;;;;;-1.72;83.54;93591.09;2095621;28;20120;-86
2021/04/24 03:07:30;;;;;;;5.30;3.88;;;;;;;-1.66;82.22;93577.47;2104233;28;20443;-87
2021/04/24 03:08:31;;;;;;;4.70;3.83;;;;;;;-1.70;82.51;93587.06;2104129;28;20174;-85
2021/04/24 03:09:31;;;;;;;4.65;3.42;;;;;;;-1.70;81.76;93587.06;2112262;28;20039;-85
2021/04/24 03:10:32;;;;;;;5.75;3.92;;;;;;;-1.70;81.88;93586.31;2103734;28;20028;-85
2021/04/24 03:11:35;;;;;;;6.72;4.05;;;;;;;-1.65;82.84;93578.22;2112504;28;20031;-85
2021/04/24 03:12:36;;;;;;;5.18;3.47;;;;;;;-1.70;81.49;93581.81;2106590;28;20833;-85
2021/04/24 03:13:37;;;;;;;4.45;3.72;;;;;;;-1.70;82.78;93571.34;2103996;28;20462;-85
2021/04/24 03:14:37;;;;;;;6.75;3.97;;;;;;;-1.77;82.83;93584.22;2107070;28;20108;-84
2021/04/24 03:15:38;;;;;;;6.43;4.00;;;;;;;-1.79;82.95;93571.44;2102399;28;20020;-85
2021/04/24 03:16:39;;;;;;;5.18;3.60;;;;;;;-1.87;83.63;93580.16;2089363;28;20457;-85
2021/04/24 03:17:39;;;;;;;7.97;4.05;;;;;;;-1.87;83.33;93580.16;2090053;28;20398;-85
2021/04/24 03:18:40;;;;;;;5.25;4.20;;;;;;;-1.71;82.61;93577.69;2101746;28;20056;-84
2021/04/24 03:19:40;;;;;;;7.10;4.05;;;;;;;-1.74;83.24;93578.31;2093505;28;20025;-84
2021/04/24 03:20:41;;;;;;;7.85;4.95;;;;;;;-1.71;83.33;93575.06;2095627;28;20106;-85
2021/04/24 03:21:41;;;;;;;5.88;3.97;;;;;;;-1.84;83.79;93582.13;2102559;28;20032;-85
2021/04/24 03:22:42;;;;;;;5.35;3.85;;;;;;;-1.72;82.79;93580.59;2093725;28;20459;-84
2021/04/24 03:23:42;;;;;;;8.65;4.20;;;;;;;-1.77;83.16;93576.34;2098144;28;20040;-85
2021/04/24 03:24:43;;;;;;;6.32;4.05;;;;;;;-1.81;83.18;93578.09;2085579;28;20034;-85
2021/04/24 03:25:43;;;;;;;6.43;4.25;;;;;;;-1.89;83.22;93574.50;2085605;28;20415;-85
2021/04/24 03:26:44;;;;;;;5.07;4.00;;;;;;;-1.92;83.31;93571.75;2098263;28;20107;-84
2021/04/24 03:27:45;;;;;;;6.10;3.70;;;;;;;-1.93;83.18;93573.63;2098492;28;20547;-84
2021/04/24 03:28:45;;;;;;;6.43;3.63;;;;;;;-1.95;83.12;93577.63;2089892;28;20496;-85
2021/04/24 03:29:45;;;;;;;7.50;4.38;;;;;;;-1.92;83.64;93575.13;2098180;28;20600;-85
2021/04/24 03:30:46;;;;;;;6.82;4.38;;;;;;;-2.00;83.68;93570.00;2098172;28;20035;-85
2021/04/24 03:31:46;;;;;;;6.47;4.35;;;;;;;-1.98;84.50;93576.41;2089983;28;20020;-84
2021/04/24 03:32:47;;;;;;;6.40;4.15;;;;;;;-1.99;84.53;93566.28;2098293;28;20644;-84
2021/04/24 03:33:48;;;;;;;5.63;4.00;;;;;;;-1.97;83.83;93572.72;2089306;28;20036;-84
2021/04/24 03:34:49;;;;;;;6.95;4.22;;;;;;;-1.96;84.19;93573.50;2089937;28;20052;-85
2021/04/24 03:35:49;;;;;;;7.47;3.97;;;;;;;-1.92;83.90;93571.75;2081686;28;20040;-84
2021/04/24 03:36:50;;;;;;;5.93;3.53;;;;;;;-1.95;83.92;93577.63;2081347;28;20068;-84
2021/04/24 03:37:50;;;;;;;5.40;4.25;;;;;;;-1.99;84.01;93577.50;2094798;28;20024;-85
2021/04/24 03:38:51;;;;;;;6.30;4.07;;;;;;;-2.03;83.28;93576.63;2089981;28;20027;-85
2021/04/24 03:39:51;;;;;;;8.95;4.38;;;;;;;-2.04;84.04;93577.72;2094933;28;20105;-84
2021/04/24 03:40:51;;;;;;;6.07;3.92;;;;;;;-2.01;84.05;93574.47;2092971;28;20029;-84
2021/04/24 03:41:52;;;;;;;6.72;4.53;;;;;;;-2.07;83.66;93567.91;2085643;28;20052;-85
2021/04/24 03:42:53;;;;;;;4.07;3.38;;;;;;;-2.07;83.44;93573.91;2095200;28;20036;-84
2021/04/24 03:43:53;;;;;;;7.45;4.95;;;;;;;-2.01;82.66;93568.47;2106552;28;20433;-84
2021/04/24 03:44:54;;;;;;;6.10;3.95;;;;;;;-1.99;82.67;93574.13;2098126;28;20043;-84
2021/04/24 03:45:54;;;;;;;8.07;4.63;;;;;;;-2.00;83.37;93572.63;2093555;28;20033;-85
2021/04/24 03:46:55;;;;;;;5.38;3.97;;;;;;;-2.03;83.24;93582.63;2093610;28;20099;-85
2021/04/24 03:47:56;;;;;;;6.68;3.85;;;;;;;-1.99;83.59;93574.91;2095259;28;20020;-84
2021/04/24 03:48:56;;;;;;;8.07;3.92;;;;;;;-1.99;83.80;93582.00;2100365;28;20024;-84
2021/04/24 03:49:57;;;;;;;5.72;4.20;;;;;;;-2.03;83.84;93576.63;2112405;28;20524;-84
2021/04/24 03:50:58;;;;;;;6.75;3.78;;;;;;;-1.95;84.11;93578.41;2097988;28;20024;-84
2021/04/24 03:51:58;;;;;;;7.47;3.58;;;;;;;-2.05;84.21;93579.59;2089878;28;20075;-85
2021/04/24 03:52:59;;;;;;;6.32;3.95;;;;;;;-2.21;84.37;93575.28;2087607;28;20946;-85
2021/04/24 03:54:00;;;;;;;7.22;4.13;;;;;;;-2.14;83.99;93576.28;2091758;28;20126;-84
2021/04/24 03:55:00;;;;;;;7.95;4.47;;;;;;;-2.10;84.06;93571.19;2098120;28;20036;-84
2021/04/24 03:56:00;;;;;;;5.88;4.30;;;;;;;-2.21;84.56;93583.91;2096012;28;20420;-84
2021/04/24 03:57:01;;;;;;;5.97;4.25;;;;;;;-2.10;83.90;93569.31;2095807;28;20037;-85
2021/04/24 03:58:02;;;;;;;5.82;3.97;;;;;;;-2.07;84.45;93571.28;2087274;28;20124;-84
2021/04/24 03:59:03;;;;;;;5.95;3.97;;;;;;;-2.08;84.99;93569.00;2100443;28;20029;-85
2021/04/24 04:00:08;;;;;;;5.35;3.78;;;;;;;-2.12;85.47;93579.34;2106316;28;20054;-86
2021/04/24 04:01:08;;;;;;;5.22;3.22;;;;;;;-2.11;84.99;93573.03;2098789;28;20039;-85
2021/04/24 04:02:09;;;;;;;8.80;4.20;;;;;;;-2.21;84.68;93567.44;2098139;28;20451;-85
2021/04/24 04:03:09;;;;;;;6.07;4.28;;;;;;;-2.20;84.38;93567.09;2089125;28;20029;-84
2021/04/24 04:04:10;;;;;;;5.28;3.88;;;;;;;-2.23;84.22;93567.00;2097201;28;20811;-84
2021/04/24 04:05:12;;;;;;;6.13;3.80;;;;;;;-2.20;84.48;93572.34;2098009;28;20034;-85
2021/04/24 04:06:12;;;;;;;8.45;4.10;;;;;;;-2.11;84.06;93570.41;2089979;28;20040;-84
2021/04/24 04:07:13;;;;;;;7.65;3.80;;;;;;;-2.11;84.09;93574.88;2097614;28;20462;-85
2021/04/24 04:08:14;;;;;;;7.13;4.28;;;;;;;-2.11;84.66;93575.66;2097777;28;20028;-84
2021/04/24 04:09:14;;;;;;;8.20;4.35;;;;;;;-2.18;85.38;93572.78;2097936;28;20036;-84
2021/04/24 04:10:17;;;;;;;6.90;3.85;;;;;;;-2.21;83.88;93573.44;2089328;28;20580;-85
2021/04/24 04:11:17;;;;;;;6.03;3.80;;;;;;;-2.26;84.79;93570.25;2098410;28;20758;-85
2021/04/24 04:12:18;;;;;;;6.00;4.15;;;;;;;-2.22;84.38;93566.66;2102030;28;20465;-85
2021/04/24 04:13:18;;;;;;;5.03;3.70;;;;;;;-2.20;84.80;93566.34;2106139;28;20028;-87
2021/04/24 04:14:18;;;;;;;7.28;4.32;;;;;;;-2.18;84.68;93566.78;2097866;28;20023;-84
2021/04/24 04:15:20;;;;;;;4.38;3.60;;;;;;;-2.19;84.68;93568.66;2090149;28;20029;-84
2021/04/24 04:16:20;;;;;;;5.10;4.13;;;;;;;-2.25;85.06;93566.56;2097775;28;20526;-85
2021/04/24 04:17:21;;;;;;;5.55;4.13;;;;;;;-2.13;84.97;93567.34;2089508;28;20431;-84
2021/04/24 04:18:21;;;;;;;9.38;4.32;;;;;;;-2.13;85.06;93571.81;2090397;28;20040;-84
2021/04/24 04:19:22;;;;;;;4.60;3.83;;;;;;;-2.22;84.53;93569.28;2097748;28;20493;-84
2021/04/24 04:20:23;;;;;;;5.53;3.75;;;;;;;-2.22;84.05;93568.53;2090513;28;20489;-85
2021/04/24 04:21:23;;;;;;;7.45;3.67;;;;;;;-2.13;84.08;93571.81;2097286;28;20024;-84
2021/04/24 04:22:25;;;;;;;6.03;4.10;;;;;;;-2.18;84.78;93572.03;2104482;28;20028;-84
2021/04/24 04:23:25;;;;;;;5.97;4.10;;;;;;;-2.10;84.15;93574.56;2089769;28;20032;-84
2021/04/24 04:24:25;;;;;;;6.07;3.97;;;;;;;-2.15;84.69;93574.78;2089424;28;20998;-84
2021/04/24 04:25:26;;;;;;;6.22;3.50;;;;;;;-2.12;84.72;93584.56;2097461;28;20031;-84
2021/04/24 04:26:26;;;;;;;8.05;4.05;;;;;;;-2.17;84.60;93576.94;2091122;28;20025;-84
2021/04/24 04:27:27;;;;;;;7.05;4.03;;;;;;;-2.19;84.38;93589.59;2105556;28;20035;-84
2021/04/24 04:28:28;;;;;;;4.13;3.70;;;;;;;-2.20;83.92;93574.19;2097408;28;20119;-84
2021/04/24 04:29:28;;;;;;;9.50;3.88;;;;;;;-2.23;83.71;93582.72;2104172;28;20024;-85
2021/04/24 04:30:31;;;;;;;6.93;3.88;;;;;;;-2.22;84.59;93576.38;2106173;28;20032;-84
2021/04/24 04:31:31;;;;;;;7.38;4.00;;;;;;;-2.37;84.46;93583.75;2091942;28;20652;-85
2021/04/24 04:32:32;;;;;;;6.57;3.75;;;;;;;-2.30;84.96;93586.59;2099892;28;20443;-83
2021/04/24 04:33:32;;;;;;;6.72;4.10;;;;;;;-2.31;84.76;93576.47;2097180;28;20028;-84
2021/04/24 04:34:33;;;;;;;7.07;3.80;;;;;;;-2.25;84.58;93574.41;2097438;28;20058;-85
2021/04/24 04:35:34;;;;;;;5.55;3.78;;;;;;;-2.24;nan;93583.78;2091943;28;20085;-84
2021/04/24 04:36:35;;;;;;;5.47;3.45;;;;;;;-2.25;84.86;93577.78;2093109;28;20036;-84
2021/04/24 04:37:36;;;;;;;8.30;4.05;;;;;;;-2.19;84.60;93578.38;2081332;28;21179;-84
2021/04/24 04:38:36;;;;;;;7.72;4.13;;;;;;;-2.21;85.18;93591.00;2089536;28;20028;-85
2021/04/24 04:39:37;;;;;;;6.57;3.95;;;;;;;-2.15;85.17;93581.84;2089334;28;20029;-85
2021/04/24 04:40:38;;;;;;;7.78;3.72;;;;;;;-2.14;85.10;93589.38;2100905;28;20096;-85
2021/04/24 04:41:38;;;;;;;6.00;3.78;;;;;;;-2.19;84.94;93584.38;2109251;28;20019;-85
2021/04/24 04:42:40;;;;;;;5.32;3.83;;;;;;;-2.13;85.06;93583.06;2106050;28;20036;-85
2021/04/24 04:43:40;;;;;;;7.75;4.15;;;;;;;-2.27;85.45;93585.22;2092858;28;20024;-85
2021/04/24 04:44:41;;;;;;;4.88;3.60;;;;;;;-2.28;85.25;93583.69;2089524;28;20987;-84
2021/04/24 04:45:41;;;;;;;5.97;3.60;;;;;;;-2.24;85.03;93579.31;2094994;28;20055;-84
2021/04/24 04:46:42;;;;;;;8.80;4.03;;;;;;;-2.19;84.59;93584.38;2096664;28;20024;-84
2021/04/24 04:47:43;;;;;;;4.68;3.60;;;;;;;-2.23;85.04;93577.47;2097589;28;20405;-85
2021/04/24 04:48:43;;;;;;;6.88;3.67;;;;;;;-2.15;83.92;93579.22;2095355;28;20032;-84
2021/04/24 04:49:44;;;;;;;7.80;4.03;;;;;;;-2.15;84.25;93579.22;2097558;28;20458;-85